createdAt,value
2022-09-10T00:03:05.040Z,41.90
2022-09-10T00:13:14.717Z,36.00
2022-09-10T00:24:11.813Z,34.70
2022-09-10T00:34:25.052Z,34.00
2022-09-10T00:45:04.295Z,34.10
2022-09-10T00:55:15.207Z,34.90
2022-09-10T01:05:25.041Z,41.20
2022-09-10T01:15:41.233Z,47.20
2022-09-10T01:26:23.094Z,54.00
2022-09-10T01:36:40.197Z,57.00
2022-09-10T01:47:57.907Z,59.10
2022-09-10T01:58:20.692Z,62.80
2022-09-10T02:08:56.794Z,66.10
2022-09-10T02:19:07.491Z,68.10
2022-09-10T02:29:17.109Z,69.30
2022-09-10T02:39:26.723Z,71.50
2022-09-10T02:49:35.591Z,72.70
2022-09-10T02:59:44.628Z,75.50
2022-09-10T03:09:55.879Z,76.90
2022-09-10T03:20:04.824Z,77.30
2022-09-10T03:31:07.232Z,78.70
2022-09-10T03:41:22.018Z,80.60
2022-09-10T03:51:32.054Z,81.90
2022-09-10T04:01:41.558Z,82.00
2022-09-10T04:12:01.261Z,82.90
2022-09-10T04:22:14.788Z,83.40
2022-09-10T04:32:45.853Z,84.10
2022-09-10T04:43:05.909Z,84.60
2022-09-10T04:53:42.993Z,85.50
2022-09-10T05:04:09.713Z,85.80
2022-09-10T05:14:40.270Z,85.30
2022-09-10T05:24:56.363Z,84.40
2022-09-10T05:35:05.662Z,83.50
2022-09-10T05:45:21.451Z,83.50
2022-09-10T05:55:28.532Z,83.00
2022-09-10T06:05:38.007Z,83.00
2022-09-10T06:15:45.856Z,83.00
2022-09-10T06:26:05.473Z,82.50
2022-09-10T06:36:14.444Z,81.80
2022-09-10T06:56:54.179Z,82.90
2022-09-10T07:07:03.480Z,81.90
2022-09-10T07:17:12.991Z,81.30
2022-09-10T07:27:22.736Z,81.80
2022-09-10T07:37:30.891Z,81.20
2022-09-10T07:47:39.714Z,83.00
2022-09-10T07:57:47.685Z,83.30
2022-09-10T08:07:58.213Z,83.10
2022-09-10T08:18:07.626Z,83.70
2022-09-10T08:28:21.348Z,84.50
2022-09-10T08:38:35.385Z,84.60
2022-09-10T08:48:48.249Z,85.00
2022-09-10T08:59:03.957Z,85.20
2022-09-10T09:09:16.510Z,84.40
2022-09-10T09:19:34.980Z,84.40
2022-09-10T09:29:52.824Z,84.60
2022-09-10T09:40:16.373Z,83.50
2022-09-10T09:50:26.073Z,83.60
2022-09-10T10:00:39.039Z,83.40
2022-09-10T10:10:54.947Z,83.00
2022-09-10T10:21:16.815Z,82.80
2022-09-10T10:31:26.580Z,82.50
2022-09-10T10:41:53.654Z,83.50
2022-09-10T10:52:09.942Z,82.60
2022-09-10T11:02:20.784Z,82.20
2022-09-10T11:12:35.904Z,82.90
2022-09-10T11:22:48.449Z,81.30
2022-09-10T11:33:03.632Z,81.80
2022-09-10T11:43:14.729Z,81.20
2022-09-10T11:53:25.772Z,81.90
2022-09-10T12:04:03.227Z,81.10
2022-09-10T12:14:19.058Z,82.40
2022-09-10T12:24:32.958Z,81.90
2022-09-10T12:34:42.679Z,82.00
2022-09-10T12:44:50.460Z,81.10
2022-09-10T12:55:09.343Z,81.80
2022-09-10T13:05:34.465Z,81.30
2022-09-10T13:15:51.753Z,82.20
2022-09-10T13:26:38.370Z,80.60
2022-09-10T13:36:58.727Z,80.80
2022-09-10T13:47:12.593Z,80.20
2022-09-10T13:57:27.187Z,79.60
2022-09-10T14:07:34.437Z,81.00
2022-09-10T14:17:47.033Z,81.40
2022-09-10T14:27:55.495Z,80.70
2022-09-10T14:38:08.177Z,82.10
2022-09-10T14:48:36.567Z,82.60
2022-09-10T14:58:46.968Z,82.60
2022-09-10T15:08:56.964Z,82.70
2022-09-10T15:19:06.168Z,83.00
2022-09-10T15:29:14.270Z,80.00
2022-09-10T15:39:23.078Z,80.30
2022-09-10T15:49:30.682Z,84.50
2022-09-10T15:59:39.424Z,87.70
2022-09-10T16:09:46.465Z,85.10
2022-09-10T16:19:55.521Z,83.80
2022-09-10T16:30:05.111Z,83.20
2022-09-10T16:40:16.937Z,82.20
2022-09-10T16:50:24.107Z,81.90
2022-09-10T17:00:32.774Z,81.80
2022-09-10T17:10:55.965Z,81.70
2022-09-10T17:21:03.551Z,81.20
2022-09-10T17:31:13.001Z,80.80
2022-09-10T17:41:20.763Z,80.90
2022-09-10T17:51:31.676Z,77.80
2022-09-10T18:01:40.952Z,75.90
2022-09-10T18:11:49.739Z,75.00
2022-09-10T18:21:56.948Z,74.70
2022-09-10T18:32:09.479Z,72.70
2022-09-10T18:42:16.792Z,75.20
2022-09-10T18:52:32.886Z,76.60
2022-09-10T19:02:46.862Z,73.20
2022-09-10T19:12:55.772Z,78.90
2022-09-10T19:23:19.558Z,82.60
2022-09-10T19:33:37.985Z,81.70
2022-09-10T19:43:48.927Z,79.70
2022-09-10T19:54:05.164Z,75.00
2022-09-10T20:04:35.570Z,75.20
2022-09-10T20:14:53.104Z,74.20
2022-09-10T20:25:04.621Z,70.40
2022-09-10T20:35:14.203Z,71.60
2022-09-10T20:45:21.398Z,73.70
2022-09-10T20:55:30.049Z,73.50
2022-09-10T21:05:37.102Z,68.40
2022-09-10T21:15:45.818Z,70.90
2022-09-10T21:36:53.885Z,80.10
2022-09-10T21:47:01.085Z,71.10
2022-09-10T21:57:12.354Z,73.50
2022-09-10T22:07:19.356Z,67.90
2022-09-10T22:17:28.734Z,66.60
2022-09-10T22:27:36.717Z,64.30
2022-09-10T22:37:46.163Z,60.70
2022-09-10T22:47:53.349Z,64.10
2022-09-10T22:58:02.279Z,66.90
2022-09-10T23:08:09.571Z,66.40
2022-09-10T23:18:18.639Z,65.50
2022-09-10T23:28:34.297Z,64.70
2022-09-10T23:38:52.475Z,65.20
2022-09-10T23:49:06.882Z,66.30
2022-09-10T23:59:16.514Z,62.80
